Time;durP1;ratioP1;P1;durP2;ratioP2;P2;SDS_P1;SDS_P2;PMS_P1;PMS_P2;Temp;Humidity;BMP_temperature;BMP_pressure;BME280_temperature;BME280_humidity;BME280_pressure;Samples;Min_cycle;Max_cycle;Signal;HPM_P1;HPM_P2
2022/05/11 00:00:01;;;;;;;4.47;3.60;;;;;;;19.79;45.64;100784.00;690609;28;927;-78
2022/05/11 00:00:32;;;;;;;4.32;3.78;;;;;;;19.80;45.44;100791.91;692920;28;1274;-77
2022/05/11 00:00:53;;;;;;;4.72;3.90;;;;;;;19.79;45.42;100797.22;690244;28;1161;-78
2022/05/11 00:01:13;;;;;;;6.10;3.97;;;;;;;19.76;45.63;100791.94;690376;28;1224;-78
2022/05/11 00:01:36;;;;;;;5.30;3.63;;;;;;;19.78;45.54;100788.38;692632;28;1296;-79
2022/05/11 00:01:58;;;;;;;5.15;3.80;;;;;;;19.81;45.63;100800.72;693145;28;1515;-78
2022/05/11 00:02:18;;;;;;;4.35;3.90;;;;;;;19.83;45.74;100807.78;687701;28;1119;-79
2022/05/11 00:02:39;;;;;;;6.60;4.20;;;;;;;19.86;45.63;100802.44;682380;29;993;-78
2022/05/11 00:02:59;;;;;;;6.55;4.22;;;;;;;19.80;45.60;100799.84;687799;28;1283;-79
2022/05/11 00:03:20;;;;;;;6.78;4.40;;;;;;;19.78;45.75;100798.13;687703;28;1215;-77
2022/05/11 00:03:41;;;;;;;5.57;4.23;;;;;;;19.78;45.67;100795.47;687755;28;1061;-78
2022/05/11 00:04:05;;;;;;;5.75;4.30;;;;;;;19.81;45.81;100800.72;682488;28;1156;-78
2022/05/11 00:04:26;;;;;;;5.20;4.10;;;;;;;19.77;45.91;100794.59;687598;28;1378;-78
2022/05/11 00:04:46;;;;;;;4.70;4.22;;;;;;;19.79;45.95;100800.72;687846;28;1300;-78
2022/05/11 00:05:10;;;;;;;4.97;4.20;;;;;;;19.76;45.76;100784.88;687830;28;1221;-78
2022/05/11 00:05:32;;;;;;;6.20;4.20;;;;;;;19.78;45.77;100787.53;687559;28;1382;-78
2022/05/11 00:05:52;;;;;;;6.90;3.90;;;;;;;19.80;45.83;100794.53;681838;29;1523;-79
2022/05/11 00:06:13;;;;;;;6.07;3.90;;;;;;;19.85;46.13;100800.69;692763;28;1206;-78
2022/05/11 00:06:35;;;;;;;4.75;3.67;;;;;;;19.89;45.71;100801.56;689900;28;1252;-78
2022/05/11 00:06:55;;;;;;;4.00;3.60;;;;;;;19.80;45.95;100781.31;687882;28;850;-78
2022/05/11 00:07:16;;;;;;;4.27;3.87;;;;;;;19.87;46.25;100798.03;684936;28;1319;-78
2022/05/11 00:07:36;;;;;;;4.30;3.90;;;;;;;19.83;46.12;100796.28;684968;28;1120;-78
2022/05/11 00:07:57;;;;;;;4.30;3.83;;;;;;;19.77;46.26;100784.00;690142;28;1151;-78
2022/05/11 00:08:18;;;;;;;4.50;3.60;;;;;;;19.83;46.30;100788.34;690525;28;1035;-78
2022/05/11 00:08:39;;;;;;;4.78;3.65;;;;;;;19.86;46.38;100796.28;694993;28;1260;-78
2022/05/11 00:09:00;;;;;;;5.40;3.80;;;;;;;19.79;46.36;100787.50;690522;28;846;-78
2022/05/11 00:09:20;;;;;;;6.20;3.88;;;;;;;19.77;46.31;100781.34;693114;28;1265;-78
2022/05/11 00:09:41;;;;;;;6.22;3.90;;;;;;;19.76;46.26;100779.59;689349;28;1168;-78
2022/05/11 00:10:03;;;;;;;5.43;3.70;;;;;;;19.84;46.08;100792.75;690124;28;1383;-78
2022/05/11 00:10:24;;;;;;;4.55;3.65;;;;;;;19.79;45.88;100781.34;690474;28;1033;-78
2022/05/11 00:10:45;;;;;;;4.68;3.78;;;;;;;19.79;46.29;100784.00;687845;28;1346;-79
2022/05/11 00:11:05;;;;;;;4.53;3.90;;;;;;;19.77;46.17;100785.75;687365;28;1158;-78
2022/05/11 00:11:27;;;;;;;5.53;3.72;;;;;;;19.82;46.19;100790.13;689934;28;1148;-78
2022/05/11 00:11:48;;;;;;;5.20;3.80;;;;;;;19.75;46.41;100776.94;689946;28;1378;-78
2022/05/11 00:12:09;;;;;;;6.17;4.00;;;;;;;19.77;46.60;100770.75;687930;28;1163;-78
2022/05/11 00:12:29;;;;;;;5.20;3.90;;;;;;;19.81;46.76;100776.91;693270;28;1068;-78
2022/05/11 00:12:50;;;;;;;5.15;3.78;;;;;;;19.73;47.12;100759.31;693248;28;1220;-78
2022/05/11 00:13:11;;;;;;;4.60;3.53;;;;;;;19.73;47.28;100759.31;693302;28;969;-79
2022/05/11 00:13:33;;;;;;;4.32;3.60;;;;;;;19.80;47.39;100769.84;690543;28;917;-77
2022/05/11 00:13:56;;;;;;;4.30;3.60;;;;;;;19.76;47.60;100776.06;690555;28;804;-78
2022/05/11 00:14:16;;;;;;;5.53;3.90;;;;;;;19.82;47.77;100781.28;690245;28;1968;-78
2022/05/11 00:14:37;;;;;;;7.63;3.95;;;;;;;19.77;47.92;100770.75;690383;28;1158;-78
2022/05/11 00:14:57;;;;;;;8.30;4.00;;;;;;;19.75;47.73;100777.84;690507;28;831;-78
2022/05/11 00:15:22;;;;;;;7.45;4.10;;;;;;;19.79;48.01;100784.00;685221;28;1108;-78
2022/05/11 00:15:42;;;;;;;4.60;3.90;;;;;;;19.76;48.01;100768.13;687686;28;1101;-78
2022/05/11 00:16:03;;;;;;;5.60;4.18;;;;;;;19.76;48.10;100778.69;690424;28;1335;-78
2022/05/11 00:16:28;;;;;;;5.10;4.20;;;;;;;19.82;48.24;100786.59;690405;28;1135;-78
2022/05/11 00:16:49;;;;;;;5.53;4.18;;;;;;;19.72;48.50;100765.50;695262;28;1147;-78
2022/05/11 00:17:09;;;;;;;4.97;4.03;;;;;;;19.71;48.25;100766.41;690554;28;976;-78
2022/05/11 00:17:30;;;;;;;5.10;4.25;;;;;;;19.72;48.31;100768.16;687719;28;1297;-78
2022/05/11 00:17:50;;;;;;;6.83;4.30;;;;;;;19.72;48.32;100762.88;687882;28;779;-78
2022/05/11 00:18:11;;;;;;;6.50;4.10;;;;;;;19.78;48.60;100777.81;682490;28;1014;-79
2022/05/11 00:18:32;;;;;;;6.47;3.80;;;;;;;19.81;48.89;100780.44;682525;29;1047;-78
2022/05/11 00:18:52;;;;;;;4.43;3.67;;;;;;;19.75;48.89;100766.38;682539;28;970;-79
2022/05/11 00:19:13;;;;;;;4.50;3.85;;;;;;;19.72;49.05;100762.88;688149;28;978;-78
2022/05/11 00:19:34;;;;;;;4.72;3.95;;;;;;;19.72;48.97;100757.56;687284;28;1376;-78
2022/05/11 00:19:55;;;;;;;4.60;3.90;;;;;;;19.70;48.91;100758.47;690329;28;1266;-78
2022/05/11 00:20:17;;;;;;;5.72;3.83;;;;;;;19.79;48.87;100776.03;687072;28;1305;-78
2022/05/11 00:20:38;;;;;;;5.10;3.70;;;;;;;19.73;49.07;100769.03;685070;28;1273;-78
2022/05/11 00:20:58;;;;;;;5.60;3.63;;;;;;;19.72;49.06;100768.16;690469;28;1213;-78
2022/05/11 00:21:19;;;;;;;4.70;3.43;;;;;;;19.71;49.00;100770.81;695192;28;1128;-78
2022/05/11 00:21:40;;;;;;;5.80;3.80;;;;;;;19.68;48.85;100757.63;693105;28;1199;-78
2022/05/11 00:22:00;;;;;;;6.88;4.30;;;;;;;19.69;48.98;100759.38;687731;28;1322;-78
2022/05/11 00:22:21;;;;;;;7.07;4.43;;;;;;;19.72;48.90;100762.88;687649;28;1313;-78
2022/05/11 00:22:43;;;;;;;6.13;4.20;;;;;;;19.75;48.87;100774.31;682558;29;1149;-78
2022/05/11 00:23:10;;;;;;;5.10;3.97;;;;;;;19.70;48.88;100763.75;684989;28;1507;-78
2022/05/11 00:23:30;;;;;;;5.50;3.53;;;;;;;19.72;48.79;100772.56;686335;28;1614;-78
2022/05/11 00:23:52;;;;;;;5.60;3.92;;;;;;;19.72;48.84;100757.56;690469;28;1258;-78
2022/05/11 00:24:19;;;;;;;7.38;4.15;;;;;;;19.69;48.82;100759.38;687224;28;1097;-78
2022/05/11 00:24:40;;;;;;;7.10;4.13;;;;;;;19.64;49.03;100755.88;681468;29;973;-77
2022/05/11 00:25:01;;;;;;;4.43;3.97;;;;;;;19.65;48.89;100762.91;687859;28;736;-78
2022/05/11 00:25:26;;;;;;;4.10;3.70;;;;;;;19.64;49.14;100764.72;688002;28;1249;-78
2022/05/11 00:25:47;;;;;;;4.57;3.45;;;;;;;19.58;48.98;100749.78;692890;28;889;-77
2022/05/11 00:26:08;;;;;;;5.00;3.20;;;;;;;19.63;48.97;100762.06;685128;28;1207;-78
2022/05/11 00:26:29;;;;;;;5.45;3.45;;;;;;;19.59;49.11;100753.28;685428;28;1224;-79
2022/05/11 00:26:49;;;;;;;4.68;3.50;;;;;;;19.64;48.98;100761.16;688382;28;867;-78
2022/05/11 00:27:10;;;;;;;4.70;3.70;;;;;;;19.59;48.82;100754.19;685559;28;1648;-78
2022/05/11 00:27:31;;;;;;;4.22;3.60;;;;;;;19.59;48.50;100756.81;692863;28;1293;-78
2022/05/11 00:27:53;;;;;;;6.05;3.55;;;;;;;19.55;48.92;100741.00;688361;28;1389;-78
2022/05/11 00:28:14;;;;;;;6.30;3.60;;;;;;;19.66;49.04;100773.50;690949;28;1267;-78
2022/05/11 00:28:35;;;;;;;6.70;3.70;;;;;;;19.61;49.08;100761.22;685598;28;1339;-77
2022/05/11 00:28:55;;;;;;;6.38;3.75;;;;;;;19.62;48.95;100761.22;687375;28;1201;-78
2022/05/11 00:29:16;;;;;;;6.00;3.60;;;;;;;19.56;49.11;100748.03;690408;28;1307;-78
2022/05/11 00:29:36;;;;;;;6.03;3.40;;;;;;;19.57;48.96;100758.63;687427;28;1127;-78
2022/05/11 00:29:58;;;;;;;4.25;3.40;;;;;;;19.63;49.03;100762.97;685091;28;1068;-77
2022/05/11 00:30:19;;;;;;;4.80;3.78;;;;;;;19.63;48.72;100762.06;682944;29;1512;-78
2022/05/11 00:30:40;;;;;;;4.28;3.55;;;;;;;19.57;48.74;100749.78;683114;29;1183;-78
2022/05/11 00:31:01;;;;;;;4.78;3.50;;;;;;;19.61;48.81;100759.44;685209;28;1274;-77
2022/05/11 00:31:22;;;;;;;4.20;3.50;;;;;;;19.52;48.78;100741.00;688854;28;1406;-78
2022/05/11 00:31:42;;;;;;;4.30;3.88;;;;;;;19.54;48.83;100749.81;691289;28;1209;-78
2022/05/11 00:32:03;;;;;;;5.03;4.00;;;;;;;19.53;48.94;100745.41;685666;28;1255;-78
2022/05/11 00:32:25;;;;;;;5.00;4.00;;;;;;;19.60;49.14;100752.38;685430;28;1059;-78
2022/05/11 00:32:46;;;;;;;4.95;3.85;;;;;;;19.59;48.99;100755.94;685567;28;1499;-78
2022/05/11 00:33:06;;;;;;;4.60;3.63;;;;;;;19.52;48.84;100749.81;685616;28;1286;-79
2022/05/11 00:33:27;;;;;;;5.30;3.70;;;;;;;19.54;48.66;100747.19;685506;28;1040;-78
2022/05/11 00:33:48;;;;;;;6.63;3.80;;;;;;;19.54;48.78;100753.34;685701;28;898;-78
2022/05/11 00:34:09;;;;;;;7.65;3.80;;;;;;;19.50;48.75;100740.16;688378;28;1049;-78
2022/05/11 00:34:30;;;;;;;7.40;3.50;;;;;;;19.51;48.78;100747.19;688096;28;1918;-78
2022/05/11 00:34:51;;;;;;;6.93;3.88;;;;;;;19.51;48.82;100752.47;691022;28;1043;-78
2022/05/11 00:35:12;;;;;;;5.30;4.00;;;;;;;19.48;48.72;100741.94;691059;28;962;-78
2022/05/11 00:35:34;;;;;;;5.03;4.03;;;;;;;19.49;48.70;100748.97;685629;28;1104;-78
2022/05/11 00:35:55;;;;;;;4.72;3.90;;;;;;;19.52;48.87;100754.22;685601;28;1172;-78
2022/05/11 00:36:15;;;;;;;5.30;3.90;;;;;;;19.52;48.66;100747.19;693707;28;1186;-78
2022/05/11 00:36:36;;;;;;;5.97;4.00;;;;;;;19.53;48.58;100750.69;693660;28;1235;-78
2022/05/11 00:36:59;;;;;;;5.47;4.00;;;;;;;19.56;48.59;100755.97;688357;28;787;-78
2022/05/11 00:37:20;;;;;;;12.00;4.40;;;;;;;19.54;48.56;100750.69;688309;28;1115;-78
2022/05/11 00:37:41;;;;;;;12.48;4.50;;;;;;;19.57;48.67;100757.72;690988;28;2175;-78
2022/05/11 00:38:03;;;;;;;11.80;4.35;;;;;;;19.51;48.72;100741.91;690880;28;1153;-78
2022/05/11 00:38:26;;;;;;;4.25;3.80;;;;;;;19.53;48.71;100748.03;690826;28;1355;-78
2022/05/11 00:38:47;;;;;;;4.80;3.90;;;;;;;19.45;48.75;100733.16;682941;29;1130;-78
2022/05/11 00:39:35;;;;;;;5.05;3.90;;;;;;;19.56;48.80;100758.63;691038;28;1263;-78
2022/05/11 00:39:58;;;;;;;5.63;3.75;;;;;;;19.41;49.01;100731.41;688288;28;760;-78
2022/05/11 00:40:21;;;;;;;6.90;3.70;;;;;;;19.48;48.88;100739.28;685455;28;1130;-78
2022/05/11 00:40:46;;;;;;;7.13;4.00;;;;;;;19.52;49.04;100752.47;691012;28;1359;-78
2022/05/11 00:41:07;;;;;;;6.50;4.05;;;;;;;19.47;48.79;100734.91;693737;28;1004;-78
2022/05/11 00:41:27;;;;;;;7.97;3.83;;;;;;;19.53;48.81;100748.03;693752;28;1079;-77
2022/05/11 00:41:48;;;;;;;9.50;4.00;;;;;;;19.41;48.64;100731.41;688241;28;1023;-78
2022/05/11 00:42:08;;;;;;;9.07;4.50;;;;;;;19.43;48.75;100724.31;688229;28;1109;-78
2022/05/11 00:42:30;;;;;;;8.13;4.57;;;;;;;19.43;48.86;100731.41;690984;28;1106;-78
2022/05/11 00:42:52;;;;;;;4.68;4.07;;;;;;;19.54;48.96;100750.69;691002;28;1462;-78
2022/05/11 00:43:12;;;;;;;5.03;3.60;;;;;;;19.53;49.00;100750.69;691036;28;1424;-78
2022/05/11 00:43:37;;;;;;;5.72;3.70;;;;;;;19.48;48.91;100736.66;686456;28;1679;-78
2022/05/11 00:44:01;;;;;;;7.25;3.90;;;;;;;19.47;48.86;100732.25;688304;28;1234;-78
2022/05/11 00:44:21;;;;;;;8.10;4.20;;;;;;;19.46;48.96;100734.00;688810;28;1206;-78
2022/05/11 00:44:42;;;;;;;8.60;4.40;;;;;;;19.44;48.81;100736.66;688286;28;1128;-78
2022/05/11 00:45:05;;;;;;;7.00;4.30;;;;;;;19.53;48.96;100746.28;690508;28;1135;-78
2022/05/11 00:45:25;;;;;;;4.82;3.92;;;;;;;19.53;48.78;100755.97;686535;28;1453;-79
2022/05/11 00:45:48;;;;;;;4.10;3.70;;;;;;;19.41;48.77;100736.69;685765;28;1356;-79
2022/05/11 00:46:20;;;;;;;5.35;3.80;;;;;;;19.51;49.03;100747.19;690977;28;1604;-78
2022/05/11 00:46:53;;;;;;;6.80;3.90;;;;;;;19.49;48.83;100754.28;690107;28;1873;-78
2022/05/11 00:47:21;;;;;;;4.88;4.10;;;;;;;19.42;48.55;100732.28;688312;28;1117;-78
2022/05/11 00:49:33;;;;;;;4.50;4.07;;;;;;;19.47;48.37;100750.78;683039;29;1153;-78
2022/05/11 00:49:44;;;;;;;6.82;3.92;;;;;;;19.40;47.78;100731.41;696277;28;1130;-78
2022/05/11 00:50:21;;;;;;;5.97;3.70;;;;;;;19.40;47.55;100734.06;696382;28;1191;-78
2022/05/11 00:50:42;;;;;;;5.20;3.80;;;;;;;19.39;47.75;100732.31;688858;28;1156;-78
2022/05/11 00:51:02;;;;;;;5.70;4.50;;;;;;;19.39;47.65;100732.31;682739;28;1279;-78
2022/05/11 00:51:27;;;;;;;5.72;4.35;;;;;;;19.32;47.54;100721.78;686361;28;1175;-78
2022/05/11 00:51:55;;;;;;;6.05;4.40;;;;;;;19.42;47.42;100746.38;685610;28;1087;-78
2022/05/11 00:52:19;;;;;;;5.53;4.30;;;;;;;19.42;47.34;100743.75;691046;28;1243;-78
2022/05/11 00:52:47;;;;;;;5.53;4.47;;;;;;;19.43;47.29;100744.63;691020;28;1374;-78
2022/05/11 00:53:11;;;;;;;7.38;4.72;;;;;;;19.38;47.47;100731.44;685567;28;1129;-77
2022/05/11 00:53:35;;;;;;;7.47;4.75;;;;;;;19.41;47.27;100734.06;683009;28;1076;-78
2022/05/11 00:53:55;;;;;;;4.93;3.90;;;;;;;19.35;47.22;100730.59;688307;28;2019;-79
2022/05/11 00:54:19;;;;;;;4.68;3.90;;;;;;;19.33;47.43;100722.66;693696;28;1967;-78
2022/05/11 00:54:49;;;;;;;4.05;3.70;;;;;;;19.37;47.31;100737.59;693911;28;1072;-78
2022/05/11 00:55:17;;;;;;;3.97;3.67;;;;;;;19.39;47.58;100732.31;693891;28;989;-78
2022/05/11 00:55:42;;;;;;;4.53;3.90;;;;;;;19.39;47.28;100732.31;688027;28;1364;-78
2022/05/11 00:56:04;;;;;;;5.30;3.90;;;;;;;19.37;47.28;100734.97;683076;29;1155;-78
2022/05/11 00:56:25;;;;;;;5.63;3.70;;;;;;;19.35;47.26;100726.16;690542;28;1278;-78
2022/05/11 00:56:51;;;;;;;6.55;3.90;;;;;;;19.38;47.38;100727.91;691244;28;1038;-79
2022/05/11 00:57:22;;;;;;;5.75;4.03;;;;;;;19.36;47.44;100733.22;691185;28;993;-78
2022/05/11 00:57:57;;;;;;;4.50;3.83;;;;;;;19.30;47.60;100720.91;693875;28;818;-79
2022/05/11 00:58:23;;;;;;;5.70;3.90;;;;;;;19.32;47.53;100726.19;696577;28;1115;-79
2022/05/11 00:58:50;;;;;;;5.85;4.10;;;;;;;19.29;47.42;100720.91;696229;28;1347;-78
2022/05/11 00:59:19;;;;;;;5.75;4.22;;;;;;;19.28;47.53;100728.00;693027;28;1134;-77
2022/05/11 00:59:43;;;;;;;5.28;4.00;;;;;;;19.21;47.63;100710.44;690727;28;1301;-78
2022/05/11 01:00:08;;;;;;;6.05;4.10;;;;;;;19.22;47.59;100711.28;688282;28;1136;-78
2022/05/11 01:00:29;;;;;;;6.00;4.50;;;;;;;19.33;47.56;100735.88;691103;28;1114;-78
2022/05/11 01:00:50;;;;;;;5.57;4.18;;;;;;;19.26;47.47;100715.66;688506;28;1447;-77
2022/05/11 01:01:11;;;;;;;5.35;4.20;;;;;;;19.32;47.72;100728.84;691030;28;1317;-78
2022/05/11 01:01:32;;;;;;;6.20;4.18;;;;;;;19.21;47.65;100712.19;690898;28;1352;-78
2022/05/11 01:01:53;;;;;;;7.30;4.47;;;;;;;19.32;47.94;100723.56;693238;28;1304;-78
2022/05/11 01:02:14;;;;;;;8.10;4.20;;;;;;;19.29;47.82;100720.91;691265;28;1067;-78
2022/05/11 01:02:35;;;;;;;6.63;3.80;;;;;;;19.34;47.89;100732.34;693823;28;1023;-78
2022/05/11 01:03:03;;;;;;;5.80;3.70;;;;;;;19.24;48.15;100718.31;691250;28;764;-77
2022/05/11 01:03:30;;;;;;;4.00;3.60;;;;;;;19.22;48.29;100711.28;687829;28;1015;-78
2022/05/11 01:04:00;;;;;;;8.30;4.43;;;;;;;19.29;48.45;100727.09;691115;28;799;-78
2022/05/11 01:04:21;;;;;;;10.23;4.70;;;;;;;19.24;48.66;100712.16;688457;28;1088;-78
2022/05/11 01:04:42;;;;;;;7.53;3.90;;;;;;;19.27;48.89;100723.59;691217;28;1348;-78
2022/05/11 01:05:06;;;;;;;5.90;3.90;;;;;;;19.29;48.69;100721.81;688400;28;1261;-78
2022/05/11 01:05:27;;;;;;;7.70;4.00;;;;;;;19.17;48.72;100703.41;688442;28;2110;-78
2022/05/11 01:05:47;;;;;;;7.03;4.00;;;;;;;19.21;48.65;100712.19;685760;28;1210;-78
2022/05/11 01:06:10;;;;;;;6.60;3.90;;;;;;;19.24;48.85;100718.31;691104;28;1120;-78
2022/05/11 01:06:31;;;;;;;4.20;3.80;;;;;;;19.24;48.60;100712.16;693813;28;940;-78
2022/05/11 01:06:52;;;;;;;5.10;4.00;;;;;;;19.20;48.70;100702.50;685826;28;759;-78
2022/05/11 01:07:14;;;;;;;5.57;4.20;;;;;;;19.22;48.78;100712.19;691202;28;1001;-78
2022/05/11 01:07:36;;;;;;;5.45;4.18;;;;;;;19.23;48.85;100715.72;685799;28;1352;-78
2022/05/11 01:07:58;;;;;;;5.25;4.30;;;;;;;19.18;48.72;100702.53;691198;28;1287;-78
2022/05/11 01:08:21;;;;;;;4.95;4.25;;;;;;;19.17;48.42;100712.22;688430;28;977;-78
2022/05/11 01:08:41;;;;;;;4.95;4.25;;;;;;;19.18;48.49;100707.81;693919;28;949;-78
2022/05/11 01:09:04;;;;;;;5.07;3.87;;;;;;;19.13;48.56;100699.03;688454;28;994;-78
2022/05/11 01:09:25;;;;;;;5.13;3.80;;;;;;;19.13;48.59;100699.91;688441;28;1267;-79
2022/05/11 01:09:45;;;;;;;5.30;4.00;;;;;;;19.15;48.49;100703.44;688700;28;851;-78
2022/05/11 01:10:08;;;;;;;5.43;4.60;;;;;;;19.23;48.47;100721.00;691376;28;1099;-78
2022/05/11 01:10:32;;;;;;;6.25;4.70;;;;;;;19.20;48.26;100710.44;691042;28;1258;-78
2022/05/11 01:10:52;;;;;;;6.50;4.68;;;;;;;19.24;48.29;100718.31;691203;28;1185;-78
2022/05/11 01:11:13;;;;;;;6.80;4.70;;;;;;;19.22;48.36;100708.63;693758;28;944;-77
2022/05/11 01:11:40;;;;;;;6.55;4.90;;;;;;;19.16;48.35;100699.00;691417;28;902;-79
2022/05/11 01:12:02;;;;;;;6.90;4.70;;;;;;;19.17;48.26;100701.63;688502;28;889;-78
2022/05/11 01:12:35;;;;;;;6.13;4.40;;;;;;;19.17;48.09;100701.63;688268;28;1450;-78
2022/05/11 01:12:59;;;;;;;5.22;4.50;;;;;;;19.13;48.13;100696.41;688464;28;903;-78
2022/05/11 01:13:22;;;;;;;6.35;4.57;;;;;;;19.16;48.05;100704.28;691082;28;1127;-78
2022/05/11 01:13:45;;;;;;;6.70;4.53;;;;;;;19.23;48.27;100713.94;685097;28;1263;-78
2022/05/11 01:14:08;;;;;;;6.60;4.40;;;;;;;19.14;48.41;100691.09;685914;28;1070;-78
2022/05/11 01:14:35;;;;;;;6.00;4.25;;;;;;;19.26;48.72;100710.38;682390;29;1931;-78
2022/05/11 01:15:00;;;;;;;6.30;4.43;;;;;;;19.23;48.52;100705.13;690619;28;1345;-78
2022/05/11 01:15:21;;;;;;;6.00;4.55;;;;;;;19.25;48.57;100706.00;690920;28;1119;-79
2022/05/11 01:15:45;;;;;;;6.03;4.80;;;;;;;19.20;48.51;100706.03;690959;28;1106;-78
2022/05/11 01:16:06;;;;;;;6.63;4.90;;;;;;;19.24;48.73;100706.88;682883;29;1252;-78
2022/05/11 01:16:27;;;;;;;8.27;4.75;;;;;;;19.15;48.62;100695.50;683041;29;1054;-78
2022/05/11 01:16:48;;;;;;;8.10;4.60;;;;;;;19.24;48.70;100709.53;688290;28;1315;-78
2022/05/11 01:17:10;;;;;;;7.00;4.30;;;;;;;19.25;48.42;100709.50;693034;28;1310;-78
2022/05/11 01:17:33;;;;;;;6.38;4.65;;;;;;;19.18;48.53;100700.75;693540;28;1281;-77
2022/05/11 01:17:53;;;;;;;8.10;5.10;;;;;;;19.22;48.26;100700.69;685677;28;908;-78
2022/05/11 01:18:16;;;;;;;8.05;5.10;;;;;;;19.22;48.20;100703.34;688187;28;1053;-78
2022/05/11 01:18:39;;;;;;;7.35;4.90;;;;;;;19.15;48.28;100691.97;690884;28;1123;-78
2022/05/11 01:19:00;;;;;;;7.35;4.68;;;;;;;19.13;48.10;100702.53;690977;28;996;-79
2022/05/11 01:19:33;;;;;;;7.63;4.60;;;;;;;19.20;48.08;100702.50;688296;28;1379;-78
2022/05/11 01:19:55;;;;;;;5.68;4.50;;;;;;;19.25;48.06;100713.91;693643;28;1120;-78
2022/05/11 01:20:21;;;;;;;4.95;4.35;;;;;;;19.14;47.89;100696.38;693595;28;1341;-78
2022/05/11 01:20:41;;;;;;;5.20;4.60;;;;;;;19.19;47.92;100699.00;690895;28;1186;-78
2022/05/11 01:21:04;;;;;;;5.50;4.75;;;;;;;19.20;47.83;100705.13;688428;28;1193;-79
2022/05/11 01:21:41;;;;;;;6.60;5.10;;;;;;;19.14;47.73;100688.44;687431;28;1175;-78
2022/05/11 01:22:20;;;;;;;6.35;5.00;;;;;;;19.20;47.65;100705.13;685524;28;1476;-78
2022/05/11 01:22:57;;;;;;;6.47;4.85;;;;;;;19.17;47.90;100696.34;685114;28;1307;-79
2022/05/11 01:23:58;;;;;;;7.88;4.70;;;;;;;19.23;47.88;100710.41;688173;28;1480;-78
2022/05/11 01:24:30;;;;;;;6.45;4.63;;;;;;;19.21;47.74;100696.31;687867;28;1176;-78
2022/05/11 01:24:51;;;;;;;7.50;5.22;;;;;;;19.21;47.54;100698.94;685509;28;804;-79
2022/05/11 01:25:14;;;;;;;6.60;5.22;;;;;;;19.24;47.71;100696.31;687401;28;960;-79
2022/05/11 01:25:35;;;;;;;7.15;4.95;;;;;;;19.14;47.73;100684.91;685678;28;1048;-78
2022/05/11 01:25:56;;;;;;;9.32;5.10;;;;;;;19.25;47.93;100696.25;688390;28;1297;-79
2022/05/11 01:26:18;;;;;;;8.82;4.97;;;;;;;19.25;47.87;100695.41;687333;28;1149;-78
2022/05/11 01:26:39;;;;;;;8.30;4.97;;;;;;;19.16;47.91;100683.13;688276;28;986;-78
2022/05/11 01:27:23;;;;;;;5.65;4.60;;;;;;;19.28;47.87;100703.28;687796;28;1047;-78
2022/05/11 01:27:46;;;;;;;5.25;4.30;;;;;;;19.25;47.99;100698.06;683912;28;1117;-78
2022/05/11 01:28:11;;;;;;;5.97;4.50;;;;;;;19.23;47.84;100694.56;686891;28;1009;-78
2022/05/11 01:28:32;;;;;;;7.20;4.90;;;;;;;19.20;47.75;100689.28;682755;29;1221;-79
2022/05/11 01:28:54;;;;;;;6.90;4.70;;;;;;;19.18;47.63;100695.44;688343;28;843;-78
2022/05/11 01:29:14;;;;;;;6.35;4.57;;;;;;;19.21;47.67;100696.31;687259;28;1405;-78
2022/05/11 01:29:35;;;;;;;6.78;4.50;;;;;;;19.21;47.74;100685.72;690786;28;1074;-79
2022/05/11 01:30:06;;;;;;;8.17;4.53;;;;;;;19.13;47.61;100684.03;691035;28;1267;-78
2022/05/11 01:30:26;;;;;;;7.80;4.60;;;;;;;19.23;47.67;100694.56;687747;28;1073;-78
2022/05/11 01:30:51;;;;;;;7.70;4.50;;;;;;;19.30;47.22;100701.53;688320;28;1219;-78
2022/05/11 01:31:13;;;;;;;6.00;4.25;;;;;;;19.21;47.15;100691.91;688267;28;958;-78
2022/05/11 01:31:34;;;;;;;4.38;3.97;;;;;;;19.15;47.30;100682.28;690864;28;1427;-78
2022/05/11 01:31:56;;;;;;;5.40;4.20;;;;;;;19.26;46.88;100697.16;693819;28;1944;-78
2022/05/11 01:32:17;;;;;;;5.85;4.43;;;;;;;19.24;46.91;100698.94;693754;28;1205;-78
2022/05/11 01:32:39;;;;;;;5.93;4.65;;;;;;;19.26;46.92;100695.41;688434;28;970;-78
2022/05/11 01:33:00;;;;;;;6.80;4.60;;;;;;;19.23;46.98;100687.47;693697;28;1082;-78
2022/05/11 01:33:23;;;;;;;6.72;4.47;;;;;;;19.21;46.80;100689.25;693674;28;1107;-78
2022/05/11 01:33:48;;;;;;;8.35;4.50;;;;;;;19.27;46.82;100696.25;693751;28;798;-78
2022/05/11 01:34:10;;;;;;;7.03;4.68;;;;;;;19.27;46.89;100696.25;693684;28;1001;-79
2022/05/11 01:34:33;;;;;;;6.38;4.72;;;;;;;19.25;46.98;100693.63;690893;28;1919;-78
2022/05/11 01:35:04;;;;;;;6.20;4.50;;;;;;;19.23;47.13;100691.91;687727;28;1296;-78
2022/05/11 01:35:40;;;;;;;5.10;4.22;;;;;;;19.30;47.00;100686.53;688253;28;1064;-78
2022/05/11 01:36:22;;;;;;;6.97;4.63;;;;;;;19.31;46.91;100690.06;693022;28;898;-78
2022/05/11 01:36:43;;;;;;;8.48;4.47;;;;;;;19.24;46.88;100683.06;692749;28;1164;-78
2022/05/11 01:37:04;;;;;;;6.43;4.25;;;;;;;19.19;47.11;100667.25;695938;28;1161;-78
2022/05/11 01:37:25;;;;;;;7.00;4.47;;;;;;;19.22;47.27;100676.91;693092;28;1362;-78
2022/05/11 01:38:13;;;;;;;4.93;4.15;;;;;;;19.29;47.28;100686.53;687363;28;1386;-78
2022/05/11 01:38:49;;;;;;;7.82;4.10;;;;;;;19.31;47.23;100688.28;690995;28;1156;-78
2022/05/11 01:39:10;;;;;;;7.75;4.35;;;;;;;19.20;47.28;100673.41;691015;28;1076;-78
2022/05/11 01:39:30;;;;;;;6.30;4.50;;;;;;;19.26;47.13;100683.94;689600;28;1158;-78
2022/05/11 01:39:51;;;;;;;5.60;4.40;;;;;;;19.30;47.09;100685.66;690920;28;842;-79
2022/05/11 01:40:11;;;;;;;5.40;4.33;;;;;;;19.23;47.00;100676.03;685643;28;1116;-78
2022/05/11 01:40:32;;;;;;;5.30;4.13;;;;;;;19.23;47.21;100674.25;685500;28;1106;-78
2022/05/11 01:40:54;;;;;;;4.97;3.78;;;;;;;19.24;46.86;100676.00;696402;28;1320;-78
2022/05/11 01:41:34;;;;;;;5.47;3.78;;;;;;;19.34;46.79;100694.41;696324;28;1323;-78
2022/05/11 01:41:55;;;;;;;6.93;4.13;;;;;;;19.22;46.69;100672.50;693690;28;903;-78
2022/05/11 01:42:16;;;;;;;6.43;4.00;;;;;;;19.31;46.88;100677.69;690929;28;988;-79
2022/05/11 01:42:36;;;;;;;6.40;3.90;;;;;;;19.25;46.86;100671.59;682916;29;977;-78
2022/05/11 01:42:57;;;;;;;4.70;3.90;;;;;;;19.21;46.93;100664.56;687274;28;1327;-78
2022/05/11 01:43:24;;;;;;;4.47;4.03;;;;;;;19.33;47.04;100685.63;687651;28;1176;-78
2022/05/11 01:43:45;;;;;;;5.70;4.30;;;;;;;19.26;46.82;100673.34;688270;28;1289;-78
2022/05/11 01:44:09;;;;;;;5.88;4.00;;;;;;;19.27;46.81;100675.97;682776;29;1345;-79
2022/05/11 01:44:30;;;;;;;6.30;4.05;;;;;;;19.26;46.61;100678.63;685447;28;1097;-78
2022/05/11 01:44:50;;;;;;;5.40;4.20;;;;;;;19.25;46.34;100676.88;688187;28;1068;-78
2022/05/11 01:45:11;;;;;;;5.00;4.23;;;;;;;19.23;46.28;100674.25;693639;28;1076;-77
2022/05/11 01:45:40;;;;;;;5.00;4.30;;;;;;;19.31;46.22;100682.13;693441;28;1019;-78
2022/05/11 01:46:02;;;;;;;4.75;4.10;;;;;;;19.23;46.14;100661.03;687959;28;1435;-78
2022/05/11 01:46:23;;;;;;;4.20;3.80;;;;;;;19.30;46.09;100677.72;687348;28;1511;-78
2022/05/11 01:46:48;;;;;;;4.43;3.65;;;;;;;19.22;45.98;100661.91;688116;28;1209;-78
2022/05/11 01:47:09;;;;;;;4.65;3.80;;;;;;;19.23;46.14;100660.16;688215;28;902;-79
2022/05/11 01:47:30;;;;;;;5.15;4.10;;;;;;;19.28;46.24;100666.25;695171;28;1162;-78
2022/05/11 01:47:54;;;;;;;4.90;4.20;;;;;;;19.29;46.42;100668.91;690444;28;1081;-78
2022/05/11 01:48:16;;;;;;;4.68;3.88;;;;;;;19.35;46.35;100678.53;688158;28;981;-78
2022/05/11 01:48:36;;;;;;;4.10;3.70;;;;;;;19.31;46.62;100676.84;688044;28;1254;-78
2022/05/11 01:48:57;;;;;;;5.17;3.87;;;;;;;19.30;46.41;100664.50;685522;28;800;-78
2022/05/11 01:49:19;;;;;;;6.97;4.20;;;;;;;19.31;46.58;100668.91;685521;28;994;-79
2022/05/11 01:49:40;;;;;;;7.75;4.50;;;;;;;19.27;46.50;100659.22;684480;28;1072;-78
2022/05/11 01:50:00;;;;;;;6.63;3.95;;;;;;;19.32;46.48;100668.00;685532;28;1243;-78
2022/05/11 01:50:22;;;;;;;4.75;3.53;;;;;;;19.24;46.21;100654.84;688062;28;1067;-78
2022/05/11 01:50:43;;;;;;;5.32;3.45;;;;;;;19.25;46.30;100659.22;688200;28;883;-78
2022/05/11 01:51:03;;;;;;;5.38;3.50;;;;;;;19.34;46.31;100674.16;685327;28;1114;-78
2022/05/11 01:51:24;;;;;;;5.05;3.53;;;;;;;19.35;46.28;100672.38;685231;28;1268;-77
2022/05/11 01:51:45;;;;;;;3.87;3.30;;;;;;;19.27;46.14;100661.88;688224;28;814;-78
2022/05/11 01:52:06;;;;;;;5.00;3.70;;;;;;;19.28;45.90;100666.25;688225;28;1076;-78